Ana Sayfa
METAR-TAF:

METAR-TAF

Havaalanları :

Alamogordo, New Mexico, Amerika Birleşik Devletleri

Enlem: 32-50N, Boylam: 105-59W, yükseklik: 1279 m

Güncel hava durumu gözlemi

Rapor saat 13:55 UTC de 28 dakika önce yapıldı.
Sakin rüzgar
Sıcaklık -5°C
Nem 58%
Basınç 1028 hPa
Görüş mesafesi: 16.1 km
Açık gökyüzü

METAR: KALM 271355Z AUTO 00000KT 10SM CLR M05/M12 A3035 RMK AO2

Saat: 07:23 (14:23 UTC)


TAF: eksik

4.000'den fazla havaalanı için hava durumu gözlemleri ve tahminleri (METAR ve TAF raporları).

Kullanılabilir istasyonlar harita üzerinde sarı ve kırmızı noktalarla gösterilir.

İstasyonun adını görmek için fareyi noktanın üzerinde gezdirin.

Sonrasında hava gözlem ve tahminlerini görmek için tıklayın.

Haritayı değiştirmek için: yaklaştırmak için siyah artı işaretli yeşil düğmeye ve uzaklaştırmak için de eksi işaretli düğmeye hızla tıklayın; bitişik haritalar için yeşil okları kullanın.


METAR-TAF: